Time;durP1;ratioP1;P1;durP2;ratioP2;P2;SDS_P1;SDS_P2;PMS_P1;PMS_P2;Temp;Humidity;BMP_temperature;BMP_pressure;BME280_temperature;BME280_humidity;BME280_pressure;Samples;Min_cycle;Max_cycle;Signal;HPM_P1;HPM_P2
2023/07/09 00:02:24;;;;;;;9.20;7.82;;;;;;;;;;5106774;27;43242;-59
2023/07/09 00:04:53;;;;;;;10.35;8.65;;;;;;;;;;5107566;27;41349;-59
2023/07/09 00:07:22;;;;;;;12.27;8.18;;;;;;;;;;5093515;27;41711;-58
2023/07/09 00:09:50;;;;;;;9.07;8.13;;;;;;;;;;5086744;28;42231;-59
2023/07/09 00:12:18;;;;;;;9.35;8.38;;;;;;;;;;5086676;28;41732;-59
2023/07/09 00:14:47;;;;;;;10.63;8.90;;;;;;;;;;5087362;28;42568;-59
2023/07/09 00:17:19;;;;;;;10.90;8.38;;;;;;;;;;5087282;28;40139;-59
2023/07/09 00:19:47;;;;;;;9.05;8.02;;;;;;;;;;5086093;28;42634;-59
2023/07/09 00:22:17;;;;;;;10.20;8.35;;;;;;;;;;5086597;28;41907;-59
2023/07/09 00:24:45;;;;;;;11.23;8.15;;;;;;;;;;5087218;28;39970;-58
2023/07/09 00:27:14;;;;;;;11.70;8.30;;;;;;;;;;5087249;28;41737;-59
2023/07/09 00:29:42;;;;;;;8.55;7.65;;;;;;;;;;5093880;28;43068;-59
2023/07/09 00:32:12;;;;;;;9.25;7.97;;;;;;;;;;5107322;28;40459;-59
2023/07/09 00:34:40;;;;;;;11.07;8.15;;;;;;;;;;5104957;28;40351;-59
2023/07/09 00:37:11;;;;;;;10.02;9.00;;;;;;;;;;5107174;28;34313;-59
2023/07/09 00:39:41;;;;;;;8.77;7.88;;;;;;;;;;5122151;27;40331;-59
2023/07/09 00:42:12;;;;;;;9.02;8.10;;;;;;;;;;5106686;28;41615;-58
2023/07/09 00:44:43;;;;;;;8.88;7.88;;;;;;;;;;5106285;27;40062;-59
2023/07/09 00:47:25;;;;;;;9.63;7.88;;;;;;;;;;5107181;28;41679;-59
2023/07/09 00:49:57;;;;;;;9.82;8.10;;;;;;;;;;5121362;27;40837;-59
2023/07/09 00:52:27;;;;;;;8.90;8.00;;;;;;;;;;5105340;28;41014;-59
2023/07/09 00:54:57;;;;;;;10.35;8.10;;;;;;;;;;5106576;28;41549;-58
2023/07/09 00:57:25;;;;;;;14.20;8.30;;;;;;;;;;5105732;27;42215;-59
2023/07/09 00:59:54;;;;;;;9.88;8.18;;;;;;;;;;5105215;28;40589;-59
2023/07/09 01:02:23;;;;;;;8.95;8.05;;;;;;;;;;5106638;28;42759;-60
2023/07/09 01:04:51;;;;;;;9.48;8.43;;;;;;;;;;5104364;28;38870;-60
2023/07/09 01:07:21;;;;;;;9.57;8.55;;;;;;;;;;5106395;28;42240;-60
2023/07/09 01:09:49;;;;;;;10.07;8.32;;;;;;;;;;5104898;28;40368;-59
2023/07/09 01:12:19;;;;;;;9.85;7.97;;;;;;;;;;5105810;28;40117;-60
2023/07/09 01:14:51;;;;;;;9.90;8.70;;;;;;;;;;5106437;28;42316;-60
2023/07/09 01:17:19;;;;;;;11.15;8.32;;;;;;;;;;5104360;28;42237;-60
2023/07/09 01:19:49;;;;;;;9.98;7.75;;;;;;;;;;5107053;27;40419;-59
2023/07/09 01:22:19;;;;;;;9.65;8.02;;;;;;;;;;5085155;28;42441;-60
2023/07/09 01:24:48;;;;;;;10.30;8.20;;;;;;;;;;5085460;28;40965;-60
2023/07/09 01:27:16;;;;;;;11.10;8.13;;;;;;;;;;5086284;28;41664;-60
2023/07/09 01:29:45;;;;;;;9.82;7.68;;;;;;;;;;5085837;28;42040;-60
2023/07/09 01:32:14;;;;;;;8.85;7.68;;;;;;;;;;5088068;28;40798;-60
2023/07/09 01:34:42;;;;;;;8.35;7.47;;;;;;;;;;5108576;28;40378;-60
2023/07/09 01:37:10;;;;;;;11.07;8.30;;;;;;;;;;5108308;28;40464;-60
2023/07/09 01:39:40;;;;;;;7.80;7.05;;;;;;;;;;5108633;28;40416;-59
2023/07/09 01:42:08;;;;;;;8.73;7.88;;;;;;;;;;5109819;27;41755;-60
2023/07/09 01:44:38;;;;;;;8.60;7.70;;;;;;;;;;5108013;28;40069;-60
2023/07/09 01:47:06;;;;;;;8.63;7.57;;;;;;;;;;5109311;28;41824;-60
2023/07/09 01:49:34;;;;;;;8.35;7.53;;;;;;;;;;5108795;28;42601;-60
2023/07/09 01:52:02;;;;;;;9.18;7.50;;;;;;;;;;5109035;28;42288;-59
2023/07/09 01:54:30;;;;;;;9.70;7.70;;;;;;;;;;5107348;28;41792;-60
2023/07/09 01:57:04;;;;;;;9.43;7.82;;;;;;;;;;5089530;28;42132;-60
2023/07/09 01:59:33;;;;;;;8.77;7.88;;;;;;;;;;5090884;28;39177;-60
2023/07/09 02:02:01;;;;;;;9.93;8.00;;;;;;;;;;5104335;28;40129;-60
2023/07/09 02:04:31;;;;;;;9.25;7.82;;;;;;;;;;5090377;28;42060;-59
2023/07/09 02:06:59;;;;;;;10.27;7.75;;;;;;;;;;5109156;28;41276;-60
2023/07/09 02:09:27;;;;;;;9.07;6.88;;;;;;;;;;5108758;27;43175;-60
2023/07/09 02:11:55;;;;;;;8.70;7.50;;;;;;;;;;5109460;28;40341;-60
2023/07/09 02:14:25;;;;;;;8.68;7.43;;;;;;;;;;5106396;28;40353;-60
2023/07/09 02:16:53;;;;;;;8.57;7.53;;;;;;;;;;5108900;27;42056;-60
2023/07/09 02:19:21;;;;;;;8.63;7.28;;;;;;;;;;5109035;28;41301;-60
2023/07/09 02:21:49;;;;;;;9.30;7.50;;;;;;;;;;5107384;28;41190;-60
2023/07/09 02:24:17;;;;;;;10.05;7.82;;;;;;;;;;5109247;28;43689;-59
2023/07/09 02:26:45;;;;;;;9.02;7.75;;;;;;;;;;5108235;28;39877;-60
2023/07/09 02:29:14;;;;;;;9.80;7.60;;;;;;;;;;5106570;28;41567;-59
2023/07/09 02:31:45;;;;;;;9.55;7.93;;;;;;;;;;5108732;27;40008;-60
2023/07/09 02:34:13;;;;;;;9.60;7.30;;;;;;;;;;5108768;28;42084;-60
2023/07/09 02:36:42;;;;;;;10.90;7.78;;;;;;;;;;5108086;28;42775;-60
2023/07/09 02:39:10;;;;;;;7.93;7.13;;;;;;;;;;5124268;27;39468;-59
2023/07/09 02:41:39;;;;;;;8.82;7.85;;;;;;;;;;5107348;28;42565;-60
2023/07/09 02:44:07;;;;;;;8.20;7.40;;;;;;;;;;5123449;27;41524;-60
2023/07/09 02:46:35;;;;;;;11.18;7.60;;;;;;;;;;5106768;28;39082;-59
2023/07/09 02:49:05;;;;;;;8.23;7.32;;;;;;;;;;5104631;28;40585;-60
2023/07/09 02:51:34;;;;;;;10.25;7.55;;;;;;;;;;5108389;28;40053;-59
2023/07/09 02:54:02;;;;;;;8.98;8.07;;;;;;;;;;5107056;28;41294;-60
2023/07/09 02:56:30;;;;;;;10.07;7.60;;;;;;;;;;5106152;28;41730;-60
2023/07/09 02:58:58;;;;;;;11.05;7.50;;;;;;;;;;5108939;28;40091;-60
2023/07/09 03:01:26;;;;;;;9.50;7.63;;;;;;;;;;5106288;28;41057;-59
2023/07/09 03:03:55;;;;;;;11.93;7.43;;;;;;;;;;5107809;28;42985;-59
2023/07/09 03:06:24;;;;;;;8.07;7.28;;;;;;;;;;5108307;28;41068;-59
2023/07/09 03:08:52;;;;;;;9.15;7.28;;;;;;;;;;5124580;27;41471;-60
2023/07/09 03:11:20;;;;;;;9.13;7.43;;;;;;;;;;5100089;28;41004;-59
2023/07/09 03:13:49;;;;;;;9.45;7.22;;;;;;;;;;5110646;27;40128;-60
2023/07/09 03:16:18;;;;;;;9.40;7.55;;;;;;;;;;5089554;28;42568;-59
2023/07/09 03:18:47;;;;;;;8.43;7.22;;;;;;;;;;5093155;28;39891;-59
2023/07/09 03:21:15;;;;;;;11.13;7.38;;;;;;;;;;5107011;28;41488;-60
2023/07/09 03:23:44;;;;;;;9.57;7.40;;;;;;;;;;5108028;28;41625;-60
2023/07/09 03:26:12;;;;;;;9.10;7.28;;;;;;;;;;5106944;28;39574;-59
2023/07/09 03:28:40;;;;;;;8.70;7.38;;;;;;;;;;5106705;27;41819;-60
2023/07/09 03:31:08;;;;;;;11.32;7.70;;;;;;;;;;5098793;28;41901;-60
2023/07/09 03:33:36;;;;;;;11.07;7.78;;;;;;;;;;5087125;28;41845;-60
2023/07/09 03:36:05;;;;;;;8.98;7.20;;;;;;;;;;5088173;28;41882;-60
2023/07/09 03:38:33;;;;;;;9.88;7.22;;;;;;;;;;5086741;28;40642;-60
2023/07/09 03:41:02;;;;;;;9.10;7.68;;;;;;;;;;5088080;28;42665;-60
2023/07/09 03:43:30;;;;;;;8.82;7.47;;;;;;;;;;5100413;28;43161;-60
2023/07/09 03:45:58;;;;;;;8.90;7.50;;;;;;;;;;5107360;27;40291;-59
2023/07/09 03:48:26;;;;;;;11.00;7.80;;;;;;;;;;5106641;27;42782;-59
2023/07/09 03:50:55;;;;;;;8.27;7.10;;;;;;;;;;5108074;27;43402;-60
2023/07/09 03:53:23;;;;;;;9.52;7.68;;;;;;;;;;5106210;27;41402;-60
2023/07/09 03:55:52;;;;;;;9.77;7.53;;;;;;;;;;5106740;27;43410;-60
2023/07/09 03:58:24;;;;;;;8.68;7.13;;;;;;;;;;5106859;28;40342;-60
2023/07/09 04:00:52;;;;;;;8.20;7.32;;;;;;;;;;5106769;27;41161;-60
2023/07/09 04:03:20;;;;;;;8.98;7.10;;;;;;;;;;5087484;28;43507;-60
2023/07/09 04:05:48;;;;;;;9.43;7.60;;;;;;;;;;5107564;27;42163;-60
2023/07/09 04:08:16;;;;;;;9.15;7.18;;;;;;;;;;5106260;27;41634;-59
2023/07/09 04:10:44;;;;;;;10.38;7.70;;;;;;;;;;5107637;27;43128;-60
2023/07/09 04:13:12;;;;;;;10.88;7.80;;;;;;;;;;5107048;27;41241;-59
2023/07/09 04:15:41;;;;;;;11.07;7.13;;;;;;;;;;5107256;27;41446;-59
2023/07/09 04:18:10;;;;;;;8.20;7.00;;;;;;;;;;5106996;27;42010;-59
2023/07/09 04:20:38;;;;;;;8.05;7.15;;;;;;;;;;5106495;27;42222;-60
2023/07/09 04:23:06;;;;;;;10.80;7.30;;;;;;;;;;5107409;27;42001;-60
2023/07/09 04:25:34;;;;;;;9.32;7.70;;;;;;;;;;5106291;27;43103;-60
2023/07/09 04:28:02;;;;;;;10.68;7.53;;;;;;;;;;5106786;27;41652;-60
2023/07/09 04:30:30;;;;;;;8.68;7.05;;;;;;;;;;5104312;27;42758;-60
2023/07/09 04:32:59;;;;;;;8.27;7.10;;;;;;;;;;5103338;27;40282;-61
2023/07/09 04:35:27;;;;;;;8.85;6.95;;;;;;;;;;5105817;27;42336;-60
2023/07/09 04:37:55;;;;;;;10.65;7.40;;;;;;;;;;5107418;27;42103;-60
2023/07/09 04:40:23;;;;;;;9.00;7.53;;;;;;;;;;5106081;27;41048;-59
2023/07/09 04:42:51;;;;;;;8.43;7.18;;;;;;;;;;5095884;27;43130;-60
2023/07/09 04:45:19;;;;;;;8.73;7.38;;;;;;;;;;5089482;27;41017;-59
2023/07/09 04:47:47;;;;;;;9.70;6.95;;;;;;;;;;5102097;28;42747;-60
2023/07/09 04:50:17;;;;;;;8.48;7.10;;;;;;;;;;5105765;27;43242;-60
2023/07/09 04:52:45;;;;;;;7.25;6.47;;;;;;;;;;5107070;27;41867;-60
2023/07/09 04:55:13;;;;;;;9.25;7.05;;;;;;;;;;5106179;27;42656;-60
2023/07/09 04:57:41;;;;;;;7.80;6.97;;;;;;;;;;5102269;27;42977;-59
2023/07/09 05:00:09;;;;;;;8.27;6.78;;;;;;;;;;5101815;27;42623;-60
2023/07/09 05:02:39;;;;;;;8.38;7.15;;;;;;;;;;5094999;27;42681;-59
2023/07/09 05:05:07;;;;;;;8.95;7.20;;;;;;;;;;5095247;28;40557;-60
2023/07/09 05:07:36;;;;;;;9.63;7.35;;;;;;;;;;5108666;27;42579;-59
2023/07/09 05:10:05;;;;;;;8.95;7.13;;;;;;;;;;5110042;27;42383;-60
2023/07/09 05:12:33;;;;;;;8.70;7.60;;;;;;;;;;5106254;27;40260;-59
2023/07/09 05:15:01;;;;;;;7.57;6.45;;;;;;;;;;5105300;27;42595;-60
2023/07/09 05:17:29;;;;;;;9.02;7.43;;;;;;;;;;5103079;27;42165;-60
2023/07/09 05:19:57;;;;;;;8.48;7.68;;;;;;;;;;5105836;28;41875;-59
2023/07/09 05:22:25;;;;;;;9.27;6.80;;;;;;;;;;5109605;27;42228;-60
2023/07/09 05:24:54;;;;;;;8.20;7.10;;;;;;;;;;5101348;27;40417;-59
2023/07/09 05:27:22;;;;;;;10.82;7.85;;;;;;;;;;5089633;28;41935;-59
2023/07/09 05:29:50;;;;;;;8.73;6.80;;;;;;;;;;5107978;28;42349;-60
2023/07/09 05:32:18;;;;;;;12.63;9.55;;;;;;;;;;5099258;27;40864;-64
2023/07/09 05:34:46;;;;;;;12.43;10.18;;;;;;;;;;5109126;27;41423;-65
2023/07/09 05:37:14;;;;;;;15.38;10.73;;;;;;;;;;5097036;27;42023;-66
2023/07/09 05:39:42;;;;;;;12.93;10.18;;;;;;;;;;5091359;28;40203;-66
2023/07/09 05:42:11;;;;;;;11.15;9.60;;;;;;;;;;5107129;28;41459;-66
2023/07/09 05:44:39;;;;;;;13.88;10.57;;;;;;;;;;5108105;27;40109;-67
2023/07/09 05:47:08;;;;;;;13.63;10.35;;;;;;;;;;5109880;28;41959;-63
2023/07/09 05:49:36;;;;;;;12.75;9.43;;;;;;;;;;5109196;28;43339;-62
2023/07/09 05:52:04;;;;;;;12.30;9.32;;;;;;;;;;5100229;27;41441;-63
2023/07/09 05:54:32;;;;;;;14.25;10.43;;;;;;;;;;5090922;28;41750;-62
2023/07/09 05:57:00;;;;;;;16.75;9.95;;;;;;;;;;5104265;28;42240;-63
2023/07/09 05:59:29;;;;;;;15.35;9.95;;;;;;;;;;5101054;27;39925;-62
2023/07/09 06:01:57;;;;;;;14.57;10.65;;;;;;;;;;5109950;27;41554;-63
2023/07/09 06:04:26;;;;;;;11.63;9.57;;;;;;;;;;5108596;27;43104;-63
2023/07/09 06:06:54;;;;;;;14.90;10.23;;;;;;;;;;5108706;27;42195;-63
2023/07/09 06:09:22;;;;;;;12.98;10.75;;;;;;;;;;5109275;27;43126;-63
2023/07/09 06:11:50;;;;;;;12.63;9.88;;;;;;;;;;5109245;28;41048;-63
2023/07/09 06:14:18;;;;;;;13.32;10.52;;;;;;;;;;5107690;27;42528;-63
2023/07/09 06:16:48;;;;;;;13.52;10.45;;;;;;;;;;5108550;27;42643;-62
2023/07/09 06:19:16;;;;;;;12.18;9.38;;;;;;;;;;5107780;28;41660;-63
2023/07/09 06:21:44;;;;;;;14.75;10.48;;;;;;;;;;5108031;27;41882;-65
2023/07/09 06:24:12;;;;;;;12.80;9.90;;;;;;;;;;5108873;27;42250;-63
2023/07/09 06:26:40;;;;;;;12.52;9.93;;;;;;;;;;5108508;27;40433;-62
2023/07/09 06:29:08;;;;;;;15.82;9.30;;;;;;;;;;5109100;27;41693;-63
2023/07/09 06:31:37;;;;;;;16.35;11.48;;;;;;;;;;5108038;27;40158;-63
2023/07/09 06:34:07;;;;;;;12.50;10.02;;;;;;;;;;5108205;28;42452;-63
2023/07/09 06:36:35;;;;;;;14.07;9.55;;;;;;;;;;5108088;27;42420;-63
2023/07/09 06:39:03;;;;;;;12.75;10.07;;;;;;;;;;5109578;27;40582;-63
2023/07/09 06:41:32;;;;;;;13.60;10.32;;;;;;;;;;5106866;27;42160;-63
2023/07/09 06:44:00;;;;;;;18.40;9.98;;;;;;;;;;5108621;28;42556;-62
2023/07/09 06:46:28;;;;;;;14.60;10.45;;;;;;;;;;5107409;27;40137;-64
2023/07/09 06:48:56;;;;;;;13.18;10.38;;;;;;;;;;5102292;28;42867;-64
2023/07/09 06:51:25;;;;;;;11.80;9.95;;;;;;;;;;5099529;28;41206;-63
2023/07/09 06:53:53;;;;;;;17.00;10.90;;;;;;;;;;5100677;28;41949;-64
2023/07/09 06:56:21;;;;;;;16.48;10.77;;;;;;;;;;5099876;27;41835;-63
2023/07/09 06:58:49;;;;;;;13.60;10.38;;;;;;;;;;5100613;27;40433;-64
2023/07/09 07:01:17;;;;;;;13.55;10.25;;;;;;;;;;5098130;28;41420;-63
2023/07/09 07:03:48;;;;;;;14.52;10.20;;;;;;;;;;5099618;28;42087;-63
2023/07/09 07:06:16;;;;;;;16.58;10.20;;;;;;;;;;5100107;28;40007;-63
2023/07/09 07:08:45;;;;;;;13.88;11.02;;;;;;;;;;5101615;28;42218;-63
2023/07/09 07:11:13;;;;;;;15.82;11.10;;;;;;;;;;5103559;27;40925;-63
2023/07/09 07:13:42;;;;;;;13.75;10.88;;;;;;;;;;5096758;28;41547;-64
2023/07/09 07:16:10;;;;;;;12.63;10.00;;;;;;;;;;5101600;27;42779;-63
2023/07/09 07:18:39;;;;;;;16.45;12.00;;;;;;;;;;5102641;28;40956;-63
2023/07/09 07:21:09;;;;;;;13.25;10.32;;;;;;;;;;5106120;28;41755;-63
2023/07/09 07:23:37;;;;;;;12.48;9.40;;;;;;;;;;5098295;28;42084;-63
2023/07/09 07:26:07;;;;;;;16.05;10.43;;;;;;;;;;5100704;27;38883;-63
2023/07/09 07:28:35;;;;;;;11.98;9.07;;;;;;;;;;5102139;27;43651;-63
2023/07/09 07:31:04;;;;;;;15.70;10.55;;;;;;;;;;5099655;28;42141;-64
2023/07/09 07:33:32;;;;;;;16.63;10.23;;;;;;;;;;5098972;27;42539;-64
2023/07/09 07:36:00;;;;;;;13.43;10.48;;;;;;;;;;5098066;28;41579;-59
2023/07/09 07:38:47;;;;;;;15.45;10.77;;;;;;;;;;5097207;28;40802;-59
2023/07/09 07:41:17;;;;;;;13.25;10.55;;;;;;;;;;5108337;27;41890;-59
2023/07/09 07:43:45;;;;;;;12.30;9.77;;;;;;;;;;5099519;28;42242;-59
2023/07/09 07:46:13;;;;;;;17.45;10.20;;;;;;;;;;5106575;27;41234;-59
2023/07/09 07:48:41;;;;;;;13.85;9.85;;;;;;;;;;5107360;27;42116;-60
2023/07/09 07:51:09;;;;;;;16.42;9.63;;;;;;;;;;5106852;27;42291;-59
2023/07/09 07:53:37;;;;;;;16.73;9.50;;;;;;;;;;5108201;27;40400;-59
2023/07/09 07:56:05;;;;;;;14.23;9.82;;;;;;;;;;5104975;27;42031;-59
2023/07/09 07:58:35;;;;;;;12.55;10.02;;;;;;;;;;5097816;27;41313;-60
2023/07/09 08:01:03;;;;;;;13.27;9.63;;;;;;;;;;5100477;28;42560;-59
2023/07/09 08:03:31;;;;;;;12.40;10.10;;;;;;;;;;5101123;28;42130;-63
2023/07/09 08:05:59;;;;;;;13.32;10.90;;;;;;;;;;5095514;28;40243;-59
2023/07/09 08:08:29;;;;;;;16.75;9.88;;;;;;;;;;5095233;28;40906;-59
2023/07/09 08:11:01;;;;;;;17.10;11.00;;;;;;;;;;5105504;27;42485;-59
2023/07/09 08:13:28;;;;;;;11.82;10.23;;;;;;;;;;5102324;28;41998;-59
2023/07/09 08:15:58;;;;;;;12.65;10.38;;;;;;;;;;5094347;28;41203;-59
2023/07/09 08:18:26;;;;;;;13.75;10.30;;;;;;;;;;5104975;27;41124;-59
2023/07/09 08:20:54;;;;;;;12.80;11.02;;;;;;;;;;5106791;28;41891;-59
2023/07/09 08:23:22;;;;;;;12.82;10.20;;;;;;;;;;5106424;28;42627;-59
2023/07/09 08:25:53;;;;;;;11.50;9.95;;;;;;;;;;5094857;28;41488;-59
2023/07/09 08:28:21;;;;;;;14.23;10.32;;;;;;;;;;5096388;28;41195;-59
2023/07/09 08:30:49;;;;;;;12.88;10.93;;;;;;;;;;5101372;27;41920;-59
2023/07/09 08:33:18;;;;;;;14.85;10.73;;;;;;;;;;5099216;28;40656;-59
2023/07/09 08:35:46;;;;;;;18.10;10.65;;;;;;;;;;5103803;28;41713;-59
2023/07/09 08:38:14;;;;;;;15.00;11.15;;;;;;;;;;5090965;28;41630;-58
2023/07/09 08:40:53;;;;;;;14.68;10.05;;;;;;;;;;5100642;27;42956;-58
2023/07/09 08:43:23;;;;;;;13.13;10.32;;;;;;;;;;5109664;28;42128;-58
2023/07/09 08:45:51;;;;;;;19.40;11.57;;;;;;;;;;5109142;28;40714;-58
2023/07/09 08:48:22;;;;;;;14.95;11.00;;;;;;;;;;5098186;28;41300;-59
2023/07/09 08:50:51;;;;;;;14.65;10.20;;;;;;;;;;5099719;27;42554;-58
2023/07/09 08:53:20;;;;;;;16.45;11.13;;;;;;;;;;5109655;28;42133;-59
2023/07/09 08:55:48;;;;;;;16.42;11.05;;;;;;;;;;5108025;27;42041;-58
2023/07/09 08:58:18;;;;;;;13.95;9.73;;;;;;;;;;5109921;28;42360;-61
2023/07/09 09:00:48;;;;;;;13.45;9.23;;;;;;;;;;5110767;27;39784;-62
2023/07/09 09:03:24;;;;;;;12.18;10.02;;;;;;;;;;5109174;27;41665;-60
2023/07/09 09:05:52;;;;;;;13.15;10.10;;;;;;;;;;5103533;27;39695;-60
2023/07/09 09:08:23;;;;;;;13.80;9.60;;;;;;;;;;5105158;28;41907;-60
2023/07/09 09:10:53;;;;;;;10.43;9.05;;;;;;;;;;5124868;27;42466;-60
2023/07/09 09:13:22;;;;;;;14.65;8.77;;;;;;;;;;5098056;27;39502;-60
2023/07/09 09:15:50;;;;;;;14.32;8.70;;;;;;;;;;5101864;27;41291;-60
2023/07/09 09:18:19;;;;;;;10.70;8.63;;;;;;;;;;5102019;27;42227;-60
2023/07/09 09:20:50;;;;;;;12.52;8.70;;;;;;;;;;5104794;27;40478;-60
2023/07/09 09:23:18;;;;;;;12.25;9.00;;;;;;;;;;5101966;27;41795;-60
2023/07/09 09:25:48;;;;;;;15.57;10.20;;;;;;;;;;5100486;27;40480;-60
2023/07/09 09:28:27;;;;;;;13.27;9.10;;;;;;;;;;5102519;28;41799;-61
2023/07/09 09:30:55;;;;;;;12.68;8.80;;;;;;;;;;5108310;27;43196;-60
2023/07/09 09:33:23;;;;;;;11.18;9.05;;;;;;;;;;5105102;27;40362;-60
2023/07/09 09:36:01;;;;;;;11.60;8.57;;;;;;;;;;5106841;27;41455;-60
2023/07/09 09:38:29;;;;;;;10.77;8.20;;;;;;;;;;5108377;27;42204;-60
2023/07/09 09:41:00;;;;;;;10.75;9.10;;;;;;;;;;5109712;27;40894;-60
2023/07/09 09:43:32;;;;;;;9.93;8.70;;;;;;;;;;5109675;27;42022;-60
2023/07/09 09:46:01;;;;;;;11.27;7.90;;;;;;;;;;5109727;27;40931;-60
2023/07/09 09:48:30;;;;;;;9.40;8.43;;;;;;;;;;5109011;27;41363;-60
2023/07/09 09:51:01;;;;;;;9.80;8.18;;;;;;;;;;5107982;27;42239;-60
2023/07/09 09:53:30;;;;;;;11.10;8.27;;;;;;;;;;5108786;27;41511;-61
2023/07/09 09:55:59;;;;;;;12.75;9.52;;;;;;;;;;5108442;27;40533;-60
2023/07/09 09:58:28;;;;;;;10.98;8.45;;;;;;;;;;5111436;27;43153;-60
2023/07/09 10:00:56;;;;;;;18.98;8.60;;;;;;;;;;5108766;27;41134;-60
2023/07/09 10:03:33;;;;;;;9.27;7.97;;;;;;;;;;5103404;28;41724;-60
2023/07/09 10:06:04;;;;;;;10.07;8.02;;;;;;;;;;5108691;27;42708;-60
2023/07/09 10:08:44;;;;;;;13.57;8.38;;;;;;;;;;5108751;27;42551;-60
2023/07/09 10:11:13;;;;;;;11.55;8.18;;;;;;;;;;5109764;27;43221;-60
2023/07/09 10:13:42;;;;;;;8.88;7.85;;;;;;;;;;5107553;27;41394;-60
2023/07/09 10:16:10;;;;;;;9.45;7.88;;;;;;;;;;5109210;27;41297;-60
2023/07/09 10:18:42;;;;;;;11.45;8.15;;;;;;;;;;5108420;27;41606;-60
2023/07/09 10:21:14;;;;;;;9.25;7.57;;;;;;;;;;5109552;27;40375;-60
2023/07/09 10:23:45;;;;;;;8.55;7.60;;;;;;;;;;5109287;27;40976;-65
2023/07/09 10:26:15;;;;;;;11.40;8.55;;;;;;;;;;5108269;27;42443;-60
2023/07/09 10:28:51;;;;;;;11.85;9.32;;;;;;;;;;5102287;27;40290;-60
2023/07/09 10:31:21;;;;;;;9.05;7.82;;;;;;;;;;5102993;28;42162;-61
2023/07/09 10:33:54;;;;;;;9.98;8.30;;;;;;;;;;5106943;27;41468;-61
2023/07/09 10:36:27;;;;;;;10.40;8.43;;;;;;;;;;5099035;28;41478;-60
2023/07/09 10:38:56;;;;;;;8.90;7.68;;;;;;;;;;5101846;28;43177;-61
2023/07/09 10:41:24;;;;;;;11.75;8.63;;;;;;;;;;5108090;27;41351;-60
2023/07/09 10:43:56;;;;;;;10.70;8.43;;;;;;;;;;5109812;27;41711;-61
2023/07/09 10:46:25;;;;;;;9.23;8.32;;;;;;;;;;5108559;27;43115;-60
2023/07/09 10:48:53;;;;;;;9.32;8.00;;;;;;;;;;5108062;27;40283;-61
2023/07/09 10:51:23;;;;;;;11.48;8.00;;;;;;;;;;5106538;27;42043;-60
2023/07/09 10:53:55;;;;;;;9.30;8.18;;;;;;;;;;5099578;28;41003;-60
2023/07/09 10:56:24;;;;;;;11.02;8.15;;;;;;;;;;5097882;27;41698;-60
2023/07/09 10:58:53;;;;;;;9.07;8.18;;;;;;;;;;5096895;27;41926;-60
2023/07/09 11:01:22;;;;;;;9.13;8.07;;;;;;;;;;5096090;27;40295;-60
2023/07/09 11:03:51;;;;;;;9.88;8.68;;;;;;;;;;5105752;27;42276;-60
2023/07/09 11:06:20;;;;;;;11.85;8.93;;;;;;;;;;5105700;27;40813;-60
2023/07/09 11:08:48;;;;;;;11.65;8.57;;;;;;;;;;5107952;27;40878;-61
2023/07/09 11:11:19;;;;;;;10.43;8.75;;;;;;;;;;5108226;28;42151;-64
2023/07/09 11:13:48;;;;;;;10.82;8.25;;;;;;;;;;5108769;27;32473;-60
2023/07/09 11:16:21;;;;;;;11.00;8.70;;;;;;;;;;5101691;28;42191;-60
2023/07/09 11:18:53;;;;;;;10.55;8.55;;;;;;;;;;5106432;27;42191;-60
2023/07/09 11:21:22;;;;;;;10.68;8.73;;;;;;;;;;5106191;28;41918;-63
2023/07/09 11:23:50;;;;;;;9.75;8.63;;;;;;;;;;5103097;27;42454;-64
2023/07/09 11:26:24;;;;;;;10.35;8.23;;;;;;;;;;5108016;27;43043;-62
2023/07/09 11:28:52;;;;;;;10.43;8.40;;;;;;;;;;5108084;27;40489;-60
2023/07/09 11:31:22;;;;;;;9.15;8.15;;;;;;;;;;5107431;27;41890;-61
2023/07/09 11:33:50;;;;;;;10.02;7.90;;;;;;;;;;5108991;27;41829;-59
2023/07/09 11:36:24;;;;;;;9.80;7.75;;;;;;;;;;5105509;27;42621;-62
2023/07/09 11:38:53;;;;;;;11.27;8.73;;;;;;;;;;5102212;27;43068;-60
2023/07/09 11:41:38;;;;;;;10.32;7.80;;;;;;;;;;5102497;28;40334;-59
2023/07/09 11:44:11;;;;;;;11.82;8.25;;;;;;;;;;5107501;27;41212;-59
2023/07/09 11:47:00;;;;;;;9.80;8.20;;;;;;;;;;5107835;27;42213;-59
2023/07/09 11:49:28;;;;;;;10.80;8.55;;;;;;;;;;5103076;27;40978;-59
2023/07/09 11:51:57;;;;;;;12.95;8.52;;;;;;;;;;5086983;28;43287;-59
2023/07/09 11:54:25;;;;;;;12.48;8.88;;;;;;;;;;5086797;28;42754;-59
2023/07/09 11:56:57;;;;;;;11.82;9.35;;;;;;;;;;5097114;28;40808;-59
2023/07/09 11:59:25;;;;;;;10.05;8.40;;;;;;;;;;5107039;27;43055;-59
2023/07/09 12:01:54;;;;;;;10.07;8.77;;;;;;;;;;5108063;27;40620;-59
2023/07/09 12:04:33;;;;;;;10.10;9.02;;;;;;;;;;5096293;27;42259;-59
2023/07/09 12:07:01;;;;;;;10.93;8.27;;;;;;;;;;5106294;28;42087;-59
2023/07/09 12:09:31;;;;;;;11.13;8.35;;;;;;;;;;5107304;27;40935;-59
2023/07/09 12:12:00;;;;;;;9.40;8.40;;;;;;;;;;5106457;27;42574;-59
2023/07/09 12:14:28;;;;;;;11.65;9.15;;;;;;;;;;5106728;27;41866;-59
2023/07/09 12:16:56;;;;;;;9.48;8.55;;;;;;;;;;5106331;27;40704;-59
2023/07/09 12:19:25;;;;;;;9.98;8.95;;;;;;;;;;5106893;27;42577;-59
2023/07/09 12:21:54;;;;;;;10.13;8.50;;;;;;;;;;5107002;28;41567;-61
2023/07/09 12:24:23;;;;;;;9.57;8.57;;;;;;;;;;5107197;27;42121;-64
2023/07/09 12:26:52;;;;;;;11.13;8.23;;;;;;;;;;5106702;27;43250;-60
2023/07/09 12:29:24;;;;;;;11.32;9.15;;;;;;;;;;5106444;27;40517;-61
2023/07/09 12:31:52;;;;;;;9.95;8.57;;;;;;;;;;5107906;27;42541;-61
2023/07/09 12:34:20;;;;;;;9.80;8.80;;;;;;;;;;5101945;27;41979;-63
2023/07/09 12:36:50;;;;;;;13.85;9.50;;;;;;;;;;5105964;27;40325;-60
2023/07/09 12:39:19;;;;;;;10.98;9.85;;;;;;;;;;5104498;28;41834;-60
2023/07/09 12:41:47;;;;;;;10.73;9.63;;;;;;;;;;5099902;27;41420;-61
2023/07/09 12:44:16;;;;;;;11.15;9.95;;;;;;;;;;5086036;28;41722;-60
2023/07/09 12:46:45;;;;;;;11.25;9.93;;;;;;;;;;5100390;28;42488;-60
2023/07/09 12:49:19;;;;;;;10.90;9.73;;;;;;;;;;5106214;27;40422;-60
2023/07/09 12:51:47;;;;;;;12.57;10.02;;;;;;;;;;5105760;27;41384;-61
2023/07/09 12:54:15;;;;;;;10.40;9.40;;;;;;;;;;5099882;28;42884;-60
2023/07/09 12:56:43;;;;;;;10.82;9.73;;;;;;;;;;5097390;28;40352;-60
2023/07/09 12:59:16;;;;;;;11.82;10.48;;;;;;;;;;5095442;28;41338;-60
2023/07/09 13:01:48;;;;;;;10.35;9.27;;;;;;;;;;5093347;27;42330;-61
2023/07/09 13:04:16;;;;;;;12.85;9.20;;;;;;;;;;5098087;27;40910;-61
2023/07/09 13:06:45;;;;;;;11.35;9.18;;;;;;;;;;5095148;27;42671;-61
2023/07/09 13:09:16;;;;;;;10.48;9.25;;;;;;;;;;5092688;27;40538;-62
2023/07/09 13:11:45;;;;;;;10.35;9.15;;;;;;;;;;5088110;27;42282;-61
2023/07/09 13:14:17;;;;;;;13.55;9.13;;;;;;;;;;5086892;28;43073;-61
2023/07/09 13:16:45;;;;;;;13.27;9.80;;;;;;;;;;5086042;28;41001;-61
2023/07/09 13:19:15;;;;;;;10.88;9.10;;;;;;;;;;5101324;28;42018;-59
2023/07/09 13:21:43;;;;;;;12.77;9.88;;;;;;;;;;5086150;28;42014;-60
2023/07/09 13:24:14;;;;;;;13.05;8.73;;;;;;;;;;5087372;28;40266;-60
2023/07/09 13:26:42;;;;;;;11.00;8.80;;;;;;;;;;5099197;28;42832;-60
2023/07/09 13:29:14;;;;;;;9.57;8.68;;;;;;;;;;5096627;27;41158;-60
2023/07/09 13:31:42;;;;;;;9.88;8.93;;;;;;;;;;5117252;27;42644;-60
2023/07/09 13:34:14;;;;;;;9.38;8.48;;;;;;;;;;5097222;27;43170;-60
2023/07/09 13:36:44;;;;;;;10.18;9.18;;;;;;;;;;5094777;28;41184;-60
2023/07/09 13:39:13;;;;;;;9.93;8.93;;;;;;;;;;5110352;27;41701;-60
2023/07/09 13:41:41;;;;;;;10.38;8.95;;;;;;;;;;5109404;27;42651;-60
2023/07/09 13:44:11;;;;;;;8.68;7.85;;;;;;;;;;5109976;27;40122;-60
2023/07/09 13:46:39;;;;;;;9.80;8.85;;;;;;;;;;5092845;27;42289;-60
2023/07/09 13:49:09;;;;;;;9.48;8.48;;;;;;;;;;5089942;28;41523;-60
2023/07/09 13:51:37;;;;;;;9.82;8.32;;;;;;;;;;5088578;28;41906;-60
2023/07/09 13:54:13;;;;;;;9.43;8.52;;;;;;;;;;5089660;28;42961;-59
2023/07/09 13:56:41;;;;;;;10.25;7.97;;;;;;;;;;5089396;28;41313;-60
2023/07/09 13:59:12;;;;;;;9.52;8.60;;;;;;;;;;5089843;28;41723;-59
2023/07/09 14:01:40;;;;;;;8.50;7.70;;;;;;;;;;5089191;28;42186;-58
2023/07/09 14:04:09;;;;;;;10.05;8.80;;;;;;;;;;5089208;28;40991;-59
2023/07/09 14:06:37;;;;;;;12.40;9.05;;;;;;;;;;5089778;27;41398;-57
2023/07/09 14:09:06;;;;;;;10.98;8.82;;;;;;;;;;5089530;28;42899;-58
2023/07/09 14:11:35;;;;;;;8.98;8.10;;;;;;;;;;5088201;28;41314;-58
2023/07/09 14:14:05;;;;;;;9.80;8.80;;;;;;;;;;5089865;28;42399;-58
2023/07/09 14:16:38;;;;;;;13.05;9.15;;;;;;;;;;5089091;27;40849;-58
2023/07/09 14:19:08;;;;;;;9.52;8.38;;;;;;;;;;5089162;28;43236;-58
2023/07/09 14:21:36;;;;;;;11.55;8.15;;;;;;;;;;5093047;28;41874;-57
2023/07/09 14:24:08;;;;;;;8.45;7.65;;;;;;;;;;5109688;27;41024;-58
2023/07/09 14:26:38;;;;;;;9.93;8.98;;;;;;;;;;5108519;27;40922;-58
2023/07/09 14:29:06;;;;;;;9.63;8.63;;;;;;;;;;5109273;27;42168;-58
2023/07/09 14:31:34;;;;;;;8.63;7.75;;;;;;;;;;5109369;27;40678;-57
2023/07/09 14:34:11;;;;;;;9.90;8.40;;;;;;;;;;5107956;27;42013;-58
2023/07/09 14:36:39;;;;;;;10.68;8.00;;;;;;;;;;5107433;27;40293;-60
2023/07/09 14:39:08;;;;;;;9.48;7.65;;;;;;;;;;5103838;27;41276;-60
2023/07/09 14:41:38;;;;;;;13.30;7.88;;;;;;;;;;5088007;28;41702;-60
2023/07/09 14:44:06;;;;;;;11.20;7.78;;;;;;;;;;5090170;28;41535;-71
2023/07/09 14:46:34;;;;;;;9.55;7.60;;;;;;;;;;5107372;27;40329;-59